<?xml version="1.0" encoding="UTF-8" standalone="no" ?>
<gpx xmlns="http://www.topografix.com/GPX/1/1" xmlns:xsi="http://www.w3.org/2001/XMLSchema-instance" xsi:schemaLocation="http://www.topografix.com/GPX/1/1 http://www.topografix.com/GPX/1/1/gpx.xsd" version="1.1" creator="VisuGPX - https://www.visugpx.com">
  <metadata>
    <name>Départ / Arrivée</name>
  </metadata>
  <trk>
    <name><![CDATA[Départ / Arrivée]]></name>
    <trkseg>
      <trkpt lat="47.38651" lon="5.96785">
        <ele>297.6</ele>
        <time>2020-05-21T11:26:45.033Z</time>
      </trkpt>
      <trkpt lat="47.38756" lon="5.96738">
        <ele>291</ele>
        <time>2020-05-21T07:00:23.832Z</time>
      </trkpt>
      <trkpt lat="47.38817" lon="5.96641">
        <ele>284.4</ele>
        <time>2020-05-21T07:00:43.782Z</time>
      </trkpt>
      <trkpt lat="47.38995" lon="5.96481">
        <ele>274.1</ele>
        <time>2020-05-21T07:01:33.011Z</time>
      </trkpt>
      <trkpt lat="47.39423" lon="5.95976">
        <ele>326.4</ele>
        <time>2020-05-21T07:24:28.473Z</time>
      </trkpt>
      <trkpt lat="47.39569" lon="5.95722">
        <ele>328.3</ele>
        <time>2020-05-21T07:28:35.266Z</time>
      </trkpt>
      <trkpt lat="47.39654" lon="5.95287">
        <ele>295</ele>
        <time>2020-05-21T07:29:43.924Z</time>
      </trkpt>
      <trkpt lat="47.39712" lon="5.95329">
        <ele>287.4</ele>
        <time>2020-05-21T07:29:58.538Z</time>
      </trkpt>
      <trkpt lat="47.39892" lon="5.95262">
        <ele>270</ele>
        <time>2020-05-21T07:30:40.096Z</time>
      </trkpt>
      <trkpt lat="47.40021" lon="5.95128">
        <ele>262.3</ele>
        <time>2020-05-21T07:31:17.661Z</time>
      </trkpt>
      <trkpt lat="47.40297" lon="5.94975">
        <ele>251.5</ele>
        <time>2020-05-21T07:32:36.253Z</time>
      </trkpt>
      <trkpt lat="47.40462" lon="5.9491">
        <ele>253.6</ele>
        <time>2020-05-21T07:35:49.621Z</time>
      </trkpt>
      <trkpt lat="47.41002" lon="5.95413">
        <ele>274</ele>
        <time>2020-05-21T07:50:59.759Z</time>
      </trkpt>
      <trkpt lat="47.41183" lon="5.95385">
        <ele>265.5</ele>
        <time>2020-05-21T07:51:44.017Z</time>
      </trkpt>
      <trkpt lat="47.41226" lon="5.9545">
        <ele>267.5</ele>
        <time>2020-05-21T07:53:11.856Z</time>
      </trkpt>
      <trkpt lat="47.41353" lon="5.95882">
        <ele>284</ele>
        <time>2020-05-21T08:02:39.752Z</time>
      </trkpt>
      <trkpt lat="47.41626" lon="5.96319">
        <ele>324.7</ele>
        <time>2020-05-21T08:20:26.483Z</time>
      </trkpt>
      <trkpt lat="47.4179" lon="5.96582">
        <ele>339.5</ele>
        <time>2020-05-21T08:28:06.599Z</time>
      </trkpt>
      <trkpt lat="47.41711" lon="5.9702">
        <ele>338.3</ele>
        <time>2020-05-21T08:32:58.637Z</time>
      </trkpt>
      <trkpt lat="47.41689" lon="5.97147">
        <ele>328.9</ele>
        <time>2020-05-21T08:33:18.507Z</time>
      </trkpt>
      <trkpt lat="47.41652" lon="5.97234">
        <ele>323.5</ele>
        <time>2020-05-21T08:33:34.010Z</time>
      </trkpt>
      <trkpt lat="47.41721" lon="5.97284">
        <ele>325.8</ele>
        <time>2020-05-21T08:35:20.256Z</time>
      </trkpt>
      <trkpt lat="47.41967" lon="5.97586">
        <ele>322.1</ele>
        <time>2020-05-21T08:37:13.076Z</time>
      </trkpt>
      <trkpt lat="47.42037" lon="5.983">
        <ele>347.7</ele>
        <time>2020-05-21T08:51:47.203Z</time>
      </trkpt>
      <trkpt lat="47.42008" lon="5.98516">
        <ele>354.5</ele>
        <time>2020-05-21T08:56:02.938Z</time>
      </trkpt>
      <trkpt lat="47.4197" lon="5.98702">
        <ele>334.8</ele>
        <time>2020-05-21T08:56:32.494Z</time>
      </trkpt>
      <trkpt lat="47.419" lon="5.98918">
        <ele>315.4</ele>
        <time>2020-05-21T08:57:08.724Z</time>
      </trkpt>
      <trkpt lat="47.41881" lon="5.99024">
        <ele>312.7</ele>
        <time>2020-05-21T08:57:28.633Z</time>
      </trkpt>
      <trkpt lat="47.4188" lon="5.9915">
        <ele>305.4</ele>
        <time>2020-05-21T08:57:47.690Z</time>
      </trkpt>
      <trkpt lat="47.41892" lon="5.99266">
        <ele>294.6</ele>
        <time>2020-05-21T08:58:05.495Z</time>
      </trkpt>
      <trkpt lat="47.41936" lon="5.99366">
        <ele>285.9</ele>
        <time>2020-05-21T08:58:23.657Z</time>
      </trkpt>
      <trkpt lat="47.41881" lon="5.99403">
        <ele>282.3</ele>
        <time>2020-05-21T08:58:36.573Z</time>
      </trkpt>
      <trkpt lat="47.41825" lon="5.99507">
        <ele>273.3</ele>
        <time>2020-05-21T08:58:56.743Z</time>
      </trkpt>
      <trkpt lat="47.41793" lon="5.99527">
        <ele>271.5</ele>
        <time>2020-05-21T08:59:05.029Z</time>
      </trkpt>
      <trkpt lat="47.41779" lon="5.99609">
        <ele>267.3</ele>
        <time>2020-05-21T08:59:17.788Z</time>
      </trkpt>
      <trkpt lat="47.41616" lon="5.99581">
        <ele>272</ele>
        <time>2020-05-21T09:03:01.692Z</time>
      </trkpt>
      <trkpt lat="47.41544" lon="5.99545">
        <ele>277</ele>
        <time>2020-05-21T09:05:31.101Z</time>
      </trkpt>
      <trkpt lat="47.41473" lon="5.99571">
        <ele>279.9</ele>
        <time>2020-05-21T09:07:27.071Z</time>
      </trkpt>
      <trkpt lat="47.41292" lon="5.99745">
        <ele>269.2</ele>
        <time>2020-05-21T09:08:17.935Z</time>
      </trkpt>
      <trkpt lat="47.41212" lon="5.99909">
        <ele>260.3</ele>
        <time>2020-05-21T09:08:46.393Z</time>
      </trkpt>
      <trkpt lat="47.4113" lon="5.9995">
        <ele>255.6</ele>
        <time>2020-05-21T09:09:06.067Z</time>
      </trkpt>
      <trkpt lat="47.40999" lon="5.99906">
        <ele>261.4</ele>
        <time>2020-05-21T09:12:50.316Z</time>
      </trkpt>
      <trkpt lat="47.40793" lon="6.00068">
        <ele>254.2</ele>
        <time>2020-05-21T09:13:55.977Z</time>
      </trkpt>
      <trkpt lat="47.40689" lon="6.00096">
        <ele>256.1</ele>
        <time>2020-05-21T09:16:04.165Z</time>
      </trkpt>
      <trkpt lat="47.40586" lon="6.00293">
        <ele>252.9</ele>
        <time>2020-05-21T09:16:58.358Z</time>
      </trkpt>
      <trkpt lat="47.40502" lon="6.00431">
        <ele>258.7</ele>
        <time>2020-05-21T09:20:34.569Z</time>
      </trkpt>
      <trkpt lat="47.40398" lon="6.00428">
        <ele>263</ele>
        <time>2020-05-21T09:23:22.766Z</time>
      </trkpt>
      <trkpt lat="47.4003" lon="6.00475">
        <ele>265.7</ele>
        <time>2020-05-21T09:30:02.008Z</time>
      </trkpt>
      <trkpt lat="47.39084" lon="6.00673">
        <ele>247.1</ele>
        <time>2020-05-21T09:35:07.708Z</time>
      </trkpt>
      <trkpt lat="47.39019" lon="6.0063">
        <ele>246.8</ele>
        <time>2020-05-21T09:36:15.656Z</time>
      </trkpt>
      <trkpt lat="47.38928" lon="6.00632">
        <ele>247</ele>
        <time>2020-05-21T09:37:49.503Z</time>
      </trkpt>
      <trkpt lat="47.38754" lon="6.00672">
        <ele>257</ele>
        <time>2020-05-21T09:43:13.719Z</time>
      </trkpt>
      <trkpt lat="47.38639" lon="6.00651">
        <ele>256.6</ele>
        <time>2020-05-21T09:45:05.031Z</time>
      </trkpt>
      <trkpt lat="47.38461" lon="6.00626">
        <ele>253.8</ele>
        <time>2020-05-21T09:46:04.955Z</time>
      </trkpt>
      <trkpt lat="47.38188" lon="6.00178">
        <ele>242.9</ele>
        <time>2020-05-21T09:48:05.201Z</time>
      </trkpt>
      <trkpt lat="47.38017" lon="5.99901">
        <ele>246</ele>
        <time>2020-05-21T09:52:53.481Z</time>
      </trkpt>
      <trkpt lat="47.37994" lon="5.9984">
        <ele>244.7</ele>
        <time>2020-05-21T09:53:07.380Z</time>
      </trkpt>
      <trkpt lat="47.37595" lon="5.99343">
        <ele>226.1</ele>
        <time>2020-05-21T09:55:27.570Z</time>
      </trkpt>
      <trkpt lat="47.37568" lon="5.99152">
        <ele>227.1</ele>
        <time>2020-05-21T09:57:50.640Z</time>
      </trkpt>
      <trkpt lat="47.37519" lon="5.99">
        <ele>227.1</ele>
        <time>2020-05-21T09:59:45.948Z</time>
      </trkpt>
      <trkpt lat="47.37409" lon="5.98816">
        <ele>231</ele>
        <time>2020-05-21T10:03:18.929Z</time>
      </trkpt>
      <trkpt lat="47.37237" lon="5.9868">
        <ele>230</ele>
        <time>2020-05-21T10:06:20.898Z</time>
      </trkpt>
      <trkpt lat="47.37207" lon="5.98623">
        <ele>232.8</ele>
        <time>2020-05-21T10:07:51.658Z</time>
      </trkpt>
      <trkpt lat="47.37303" lon="5.98503">
        <ele>244.2</ele>
        <time>2020-05-21T10:12:53.800Z</time>
      </trkpt>
      <trkpt lat="47.37437" lon="5.98219">
        <ele>236.2</ele>
        <time>2020-05-21T10:13:57.724Z</time>
      </trkpt>
      <trkpt lat="47.37149" lon="5.97804">
        <ele>233.9</ele>
        <time>2020-05-21T10:20:10.329Z</time>
      </trkpt>
      <trkpt lat="47.36883" lon="5.9761">
        <ele>232.1</ele>
        <time>2020-05-21T10:24:43.564Z</time>
      </trkpt>
      <trkpt lat="47.37004" lon="5.97218">
        <ele>241.3</ele>
        <time>2020-05-21T10:31:37.122Z</time>
      </trkpt>
      <trkpt lat="47.37156" lon="5.96612">
        <ele>244.3</ele>
        <time>2020-05-21T10:39:27.612Z</time>
      </trkpt>
      <trkpt lat="47.37283" lon="5.96322">
        <ele>252.3</ele>
        <time>2020-05-21T10:45:11.261Z</time>
      </trkpt>
      <trkpt lat="47.37316" lon="5.96119">
        <ele>256.1</ele>
        <time>2020-05-21T10:48:20.220Z</time>
      </trkpt>
      <trkpt lat="47.37429" lon="5.96028">
        <ele>257</ele>
        <time>2020-05-21T10:50:39.363Z</time>
      </trkpt>
      <trkpt lat="47.37552" lon="5.95943">
        <ele>259.1</ele>
        <time>2020-05-21T10:53:18.191Z</time>
      </trkpt>
      <trkpt lat="47.37682" lon="5.95753">
        <ele>260.8</ele>
        <time>2020-05-21T10:56:39.910Z</time>
      </trkpt>
      <trkpt lat="47.37991" lon="5.9563">
        <ele>251.9</ele>
        <time>2020-05-21T10:58:13.226Z</time>
      </trkpt>
      <trkpt lat="47.38096" lon="5.95771">
        <ele>252.3</ele>
        <time>2020-05-21T11:00:39.970Z</time>
      </trkpt>
      <trkpt lat="47.38279" lon="5.96126">
        <ele>267.6</ele>
        <time>2020-05-21T11:09:34.655Z</time>
      </trkpt>
      <trkpt lat="47.3836" lon="5.96275">
        <ele>275.1</ele>
        <time>2020-05-21T11:13:35.194Z</time>
      </trkpt>
      <trkpt lat="47.38369" lon="5.96353">
        <ele>275.6</ele>
        <time>2020-05-21T11:14:33.876Z</time>
      </trkpt>
      <trkpt lat="47.38612" lon="5.9672">
        <ele>295.5</ele>
        <time>2020-05-21T11:25:16.653Z</time>
      </trkpt>
      <trkpt lat="47.38651" lon="5.96785">
        <ele>297.6</ele>
        <time>2020-05-21T11:26:45.033Z</time>
      </trkpt>
    </trkseg>
  </trk>
</gpx>